createdAt,value
2023-02-27T00:10:56.621Z,92391.00
2023-02-27T00:11:56.525Z,92391.00
2023-02-27T00:12:56.430Z,92401.00
2023-02-27T00:13:56.327Z,92397.00
2023-02-27T00:14:56.245Z,92405.00
2023-02-27T00:15:56.168Z,92397.00
2023-02-27T00:16:56.043Z,92397.00
2023-02-27T00:17:55.962Z,92403.00
2023-02-27T01:44:47.133Z,92422.00
2023-02-27T01:45:47.037Z,92426.00
2023-02-27T01:46:46.904Z,92430.00
2023-02-27T01:47:46.804Z,92428.00
2023-02-27T01:48:46.671Z,92424.00
2023-02-27T01:49:46.551Z,92426.00
2023-02-27T01:50:46.438Z,92430.00
2023-02-27T01:51:46.305Z,92424.00
2023-02-27T01:52:46.176Z,92426.00
2023-02-27T01:53:46.063Z,92428.00
2023-02-27T01:54:45.947Z,92424.00
2023-02-27T02:40:40.000Z,92430.00
2023-02-27T02:41:39.875Z,92432.00
2023-02-27T02:42:39.756Z,92430.00
2023-02-27T02:43:39.638Z,92428.00
2023-02-27T02:44:39.528Z,92428.00
2023-02-27T02:45:39.403Z,92426.00
2023-02-27T02:46:39.278Z,92426.00
2023-02-27T02:47:39.164Z,92426.00
2023-02-27T02:48:39.054Z,92426.00
2023-02-27T02:49:38.921Z,92428.00
2023-02-27T02:50:38.801Z,92428.00
2023-02-27T02:51:38.686Z,92430.00
2023-02-27T02:52:38.560Z,92428.00
2023-02-27T02:53:38.433Z,92428.00
2023-02-27T02:54:38.313Z,92432.00
2023-02-27T02:55:38.195Z,92432.00
2023-02-27T02:56:38.070Z,92432.00
2023-02-27T02:57:37.989Z,92430.00
2023-02-27T02:58:37.828Z,92432.00
2023-02-27T02:59:37.716Z,92438.00
2023-02-27T03:00:37.587Z,92428.00
2023-02-27T03:01:37.517Z,92434.00
2023-02-27T03:02:37.345Z,92436.00
2023-02-27T03:03:37.237Z,92432.00
2023-02-27T03:04:37.127Z,92436.00
2023-02-27T03:05:36.975Z,92432.00
2023-02-27T03:06:36.852Z,92436.00
2023-02-27T03:07:36.756Z,92436.00
2023-02-27T03:08:36.622Z,92430.00
2023-02-27T03:09:36.516Z,92432.00
2023-02-27T03:10:36.387Z,92436.00
2023-02-27T03:11:36.257Z,92434.00
2023-02-27T03:12:36.153Z,92438.00
2023-02-27T03:13:36.038Z,92436.00
2023-02-27T04:22:27.745Z,92501.00
2023-02-27T04:23:27.643Z,92497.00
2023-02-27T04:24:27.527Z,92499.00
2023-02-27T04:25:27.395Z,92499.00
2023-02-27T04:26:27.272Z,92503.00
2023-02-27T04:27:27.150Z,92499.00
2023-02-27T04:28:27.025Z,92499.00
2023-02-27T04:29:26.910Z,92499.00
2023-02-27T04:30:26.790Z,92497.00
2023-02-27T04:31:26.989Z,92499.00
2023-02-27T04:32:26.638Z,92499.00
2023-02-27T04:33:26.440Z,92501.00
2023-02-27T04:34:26.330Z,92501.00
2023-02-27T04:35:26.199Z,92501.00
2023-02-27T04:36:26.392Z,92501.00
2023-02-27T04:37:25.958Z,92501.00
2023-02-27T04:52:24.232Z,92507.00
2023-02-27T04:53:24.102Z,92507.00
2023-02-27T04:54:23.989Z,92507.00
2023-02-27T04:55:23.863Z,92505.00
2023-02-27T04:56:23.745Z,92503.00
2023-02-27T04:57:23.609Z,92510.00
2023-02-27T04:58:25.291Z,92508.00
2023-02-27T04:59:23.355Z,92507.00
2023-02-27T05:00:23.236Z,92508.00
2023-02-27T05:01:23.109Z,92508.00
2023-02-27T05:02:23.111Z,92510.00
2023-02-27T05:03:22.882Z,92512.00
2023-02-27T05:04:22.764Z,92510.00
2023-02-27T05:05:22.628Z,92512.00
2023-02-27T05:06:22.505Z,92512.00
2023-02-27T05:07:22.373Z,92510.00
2023-02-27T05:08:22.258Z,92510.00
2023-02-27T05:09:22.146Z,92510.00
2023-02-27T05:10:22.001Z,92510.00
2023-02-27T05:11:21.887Z,92512.00
2023-02-27T05:12:21.759Z,92512.00
2023-02-27T05:13:21.635Z,92514.00
2023-02-27T05:14:21.525Z,92514.00
2023-02-27T05:15:21.405Z,92514.00
2023-02-27T05:16:21.335Z,92512.00
2023-02-27T05:17:21.161Z,92514.00
2023-02-27T05:18:21.028Z,92514.00
2023-02-27T05:19:20.906Z,92516.00
2023-02-27T05:20:20.799Z,92514.00
2023-02-27T05:21:20.677Z,92522.00
2023-02-27T05:22:20.573Z,92514.00
2023-02-27T05:23:20.453Z,92514.00
2023-02-27T05:24:20.324Z,92514.00
2023-02-27T05:25:20.193Z,92516.00
2023-02-27T05:26:20.084Z,92516.00
2023-02-27T05:27:19.974Z,92518.00
2023-02-27T05:28:19.851Z,92516.00
2023-02-27T05:29:19.736Z,92516.00
2023-02-27T05:30:19.626Z,92518.00
2023-02-27T05:31:19.525Z,92518.00
2023-02-27T05:32:19.491Z,92516.00
2023-02-27T05:33:19.268Z,92516.00
2023-02-27T05:34:19.155Z,92518.00
2023-02-27T05:35:19.039Z,92518.00
2023-02-27T05:36:18.914Z,92520.00
2023-02-27T05:37:18.810Z,92520.00
2023-02-27T05:38:18.690Z,92522.00
2023-02-27T05:39:18.570Z,92522.00
2023-02-27T05:40:18.455Z,92524.00
2023-02-27T05:41:18.332Z,92524.00
2023-02-27T05:42:18.217Z,92524.00
2023-02-27T05:43:18.102Z,92526.00
2023-02-27T05:44:17.980Z,92524.00
2023-02-27T05:45:17.876Z,92528.00
2023-02-27T05:46:17.796Z,92526.00
2023-02-27T05:47:17.650Z,92532.00
2023-02-27T05:48:19.560Z,92530.00
2023-02-27T05:49:17.412Z,92532.00
2023-02-27T05:50:17.279Z,92532.00
2023-02-27T05:51:17.166Z,92534.00
2023-02-27T05:52:17.054Z,92536.00
2023-02-27T05:53:16.932Z,92532.00
2023-02-27T05:54:16.828Z,92534.00
2023-02-27T05:55:18.657Z,92532.00
2023-02-27T05:56:16.572Z,92534.00
2023-02-27T05:57:16.467Z,92536.00
2023-02-27T05:58:16.353Z,92532.00
2023-02-27T05:59:16.233Z,92532.00
2023-02-27T06:00:16.123Z,92532.00
2023-02-27T06:01:16.006Z,92532.00
2023-02-27T06:02:15.902Z,92534.00
2023-02-27T06:03:15.824Z,92534.00
2023-02-27T06:04:15.674Z,92538.00
2023-02-27T06:05:15.550Z,92536.00
2023-02-27T06:06:15.433Z,92536.00
2023-02-27T06:07:15.311Z,92540.00
2023-02-27T06:08:15.187Z,92538.00
2023-02-27T06:09:15.068Z,92540.00
2023-02-27T06:10:14.949Z,92540.00
2023-02-27T06:11:14.827Z,92542.00
2023-02-27T06:12:14.718Z,92540.00
2023-02-27T06:13:14.627Z,92542.00
2023-02-27T06:14:14.476Z,92540.00
2023-02-27T06:15:14.350Z,92542.00
2023-02-27T06:16:14.301Z,92544.00
2023-02-27T06:17:14.104Z,92544.00
2023-02-27T06:18:13.974Z,92544.00
2023-02-27T06:19:13.873Z,92548.00
2023-02-27T06:20:13.738Z,92552.00
2023-02-27T06:21:13.629Z,92552.00
2023-02-27T06:22:13.992Z,92544.00
2023-02-27T06:23:13.406Z,92552.00
2023-02-27T06:24:13.313Z,92552.00
2023-02-27T06:25:13.180Z,92554.00
2023-02-27T06:26:12.980Z,92554.00
2023-02-27T06:27:13.379Z,92556.00
2023-02-27T06:28:12.627Z,92556.00
2023-02-27T06:29:12.451Z,92556.00
2023-02-27T06:30:12.925Z,92558.00
2023-02-27T06:31:12.125Z,92559.00
2023-02-27T06:32:11.991Z,92563.00
2023-02-27T06:33:11.805Z,92563.00
2023-02-27T06:34:11.545Z,92561.00
2023-02-27T06:35:11.351Z,92563.00
2023-02-27T06:36:13.018Z,92565.00
2023-02-27T06:37:10.971Z,92569.00
2023-02-27T06:38:10.939Z,92579.00
2023-02-27T06:39:10.627Z,92569.00
2023-02-27T06:40:10.451Z,92577.00
2023-02-27T06:41:10.297Z,92579.00
2023-02-27T06:42:10.115Z,92577.00
2023-02-27T06:43:10.439Z,92577.00
2023-02-27T06:44:09.759Z,92581.00
2023-02-27T06:45:09.560Z,92577.00
2023-02-27T06:46:09.449Z,92579.00
2023-02-27T06:47:09.190Z,92569.00
2023-02-27T06:48:08.995Z,92579.00
2023-02-27T06:49:08.812Z,92579.00
2023-02-27T06:58:07.239Z,92579.00
2023-02-27T06:59:07.511Z,92581.00
2023-02-27T07:00:06.976Z,92583.00
2023-02-27T07:01:06.949Z,92583.00
2023-02-27T07:02:07.441Z,92583.00
2023-02-27T07:03:06.455Z,92587.00
2023-02-27T07:04:06.317Z,92587.00
2023-02-27T07:05:08.333Z,92587.00
2023-02-27T07:06:06.012Z,92589.00
2023-02-27T07:07:33.070Z,92589.00
2023-02-27T07:12:05.933Z,92591.00
2023-02-27T08:00:56.993Z,92608.00
2023-02-27T08:02:56.703Z,92612.00
2023-02-27T08:05:56.122Z,92612.00
2023-02-27T08:06:55.955Z,92612.00
2023-02-27T09:02:47.977Z,92616.00
2023-02-27T09:03:46.749Z,92614.00
2023-02-27T09:04:46.590Z,92618.00
2023-02-27T09:05:46.428Z,92622.00
2023-02-27T09:06:46.264Z,92620.00
2023-02-27T09:07:46.102Z,92620.00
2023-02-27T09:08:45.948Z,92620.00
2023-02-27T09:13:45.978Z,92628.00
2023-02-27T10:02:36.657Z,92632.00
2023-02-27T10:03:36.500Z,92632.00
2023-02-27T10:04:36.248Z,92628.00
2023-02-27T10:05:36.065Z,92634.00
2023-02-27T10:08:35.563Z,92640.00
2023-02-27T10:09:35.408Z,92640.00
2023-02-27T10:10:35.237Z,92640.00
2023-02-27T10:11:35.098Z,92638.00
2023-02-27T10:12:34.917Z,92640.00
2023-02-27T10:13:34.778Z,92646.00
2023-02-27T10:14:34.591Z,92642.00
2023-02-27T10:15:34.419Z,92642.00
2023-02-27T10:16:34.342Z,92644.00
2023-02-27T10:17:34.110Z,92649.00
2023-02-27T10:18:33.935Z,92646.00
2023-02-27T10:19:33.779Z,92646.00
2023-02-27T10:20:33.621Z,92646.00
2023-02-27T10:21:33.777Z,92647.00
2023-02-27T10:22:33.382Z,92647.00
2023-02-27T10:23:33.937Z,92649.00
2023-02-27T10:24:33.517Z,92647.00
2023-02-27T10:25:32.841Z,92646.00
2023-02-27T10:26:34.063Z,92651.00
2023-02-27T10:27:33.929Z,92646.00
2023-02-27T10:28:32.321Z,92646.00
2023-02-27T10:29:32.167Z,92649.00
2023-02-27T10:30:34.993Z,92651.00
2023-02-27T10:31:31.945Z,92651.00
2023-02-27T10:32:31.651Z,92651.00
2023-02-27T10:33:31.512Z,92651.00
2023-02-27T10:34:31.289Z,92649.00
2023-02-27T10:35:31.144Z,92649.00
2023-02-27T10:36:34.495Z,92655.00
2023-02-27T10:37:30.757Z,92651.00
2023-02-27T10:38:30.570Z,92651.00
2023-02-27T10:39:30.436Z,92653.00
2023-02-27T10:40:30.209Z,92651.00
2023-02-27T10:41:30.339Z,92655.00
2023-02-27T10:42:29.859Z,92653.00
2023-02-27T10:43:29.718Z,92651.00
2023-02-27T10:44:29.485Z,92651.00
2023-02-27T10:45:29.305Z,92651.00
2023-02-27T10:46:29.611Z,92649.00
2023-02-27T10:47:28.991Z,92647.00
2023-02-27T10:48:28.772Z,92646.00
2023-02-27T10:49:28.597Z,92651.00
2023-02-27T10:50:28.420Z,92649.00
2023-02-27T10:51:28.639Z,92649.00
2023-02-27T10:52:28.061Z,92647.00
2023-02-27T10:53:27.913Z,92646.00
2023-02-27T10:54:27.694Z,92647.00
2023-02-27T10:55:27.512Z,92647.00
2023-02-27T10:56:27.732Z,92646.00
2023-02-27T10:57:27.127Z,92647.00
2023-02-27T10:58:28.467Z,92647.00
2023-02-27T10:59:26.764Z,92649.00
2023-02-27T11:00:26.576Z,92647.00
2023-02-27T11:01:26.626Z,92646.00
2023-02-27T11:02:26.223Z,92646.00
2023-02-27T11:03:26.031Z,92653.00
2023-02-27T11:04:25.889Z,92646.00
2023-02-27T11:05:25.665Z,92649.00
2023-02-27T11:06:25.490Z,92646.00
2023-02-27T11:07:25.317Z,92647.00
2023-02-27T11:08:25.125Z,92646.00
2023-02-27T11:09:24.963Z,92646.00
2023-02-27T11:10:24.753Z,92647.00
2023-02-27T11:11:24.683Z,92646.00
2023-02-27T11:12:24.388Z,92644.00
2023-02-27T11:13:24.211Z,92644.00
2023-02-27T11:14:24.031Z,92642.00
2023-02-27T11:15:23.851Z,92640.00
2023-02-27T11:16:23.658Z,92638.00
2023-02-27T11:17:23.552Z,92638.00
2023-02-27T11:18:23.302Z,92642.00
2023-02-27T11:19:23.131Z,92642.00
2023-02-27T11:20:23.519Z,92640.00
2023-02-27T11:21:22.775Z,92640.00
2023-02-27T11:22:23.017Z,92638.00
2023-02-27T11:23:22.406Z,92642.00
2023-02-27T11:24:22.221Z,92642.00
2023-02-27T11:25:22.075Z,92640.00
2023-02-27T11:26:21.863Z,92644.00
2023-02-27T11:27:21.684Z,92642.00
2023-02-27T11:28:21.518Z,92649.00
2023-02-27T11:29:21.329Z,92644.00
2023-02-27T11:30:21.169Z,92640.00
2023-02-27T11:31:21.041Z,92642.00
2023-02-27T11:32:20.780Z,92642.00
2023-02-27T11:33:20.632Z,92640.00
2023-02-27T11:34:20.413Z,92636.00
2023-02-27T11:35:20.538Z,92632.00
2023-02-27T11:36:20.093Z,92632.00
2023-02-27T11:37:19.850Z,92632.00
2023-02-27T11:38:19.681Z,92628.00
2023-02-27T11:39:19.500Z,92628.00
2023-02-27T11:40:19.340Z,92626.00
2023-02-27T11:41:19.131Z,92628.00
2023-02-27T11:42:18.957Z,92624.00
2023-02-27T11:43:18.785Z,92624.00
2023-02-27T11:44:21.628Z,92622.00
2023-02-27T11:45:18.420Z,92624.00
2023-02-27T11:46:46.586Z,92622.00
2023-02-27T11:47:19.072Z,92620.00
2023-02-27T11:48:17.863Z,92622.00
2023-02-27T11:49:17.682Z,92620.00
2023-02-27T11:50:17.518Z,92620.00
2023-02-27T11:51:17.341Z,92618.00
2023-02-27T11:52:17.151Z,92620.00
2023-02-27T11:53:16.943Z,92620.00
2023-02-27T11:54:17.799Z,92618.00
2023-02-27T11:55:17.558Z,92622.00
2023-02-27T11:56:16.403Z,92620.00
2023-02-27T11:57:16.221Z,92620.00
2023-02-27T11:58:16.046Z,92616.00
2023-02-27T12:03:16.124Z,92616.00
2023-02-27T12:41:08.059Z,92600.00
2023-02-27T12:42:07.899Z,92600.00
2023-02-27T12:43:08.550Z,92604.00
2023-02-27T12:44:07.500Z,92596.00
2023-02-27T12:45:07.386Z,92600.00
2023-02-27T12:46:07.196Z,92598.00
2023-02-27T12:47:06.964Z,92600.00
2023-02-27T12:48:06.775Z,92596.00
2023-02-27T12:49:06.659Z,92598.00
2023-02-27T12:50:06.469Z,92600.00
2023-02-27T12:51:06.310Z,92598.00
2023-02-27T12:52:06.159Z,92600.00
2023-02-27T12:53:06.003Z,92602.00
2023-02-27T13:17:02.269Z,92604.00
2023-02-27T13:18:02.090Z,92604.00
2023-02-27T13:19:01.919Z,92606.00
2023-02-27T13:20:01.767Z,92606.00
2023-02-27T13:21:01.595Z,92604.00
2023-02-27T13:48:57.135Z,92602.00
2023-02-27T13:49:56.968Z,92602.00
2023-02-27T13:50:56.795Z,92608.00
2023-02-27T13:51:56.763Z,92600.00
2023-02-27T13:52:56.477Z,92602.00
2023-02-27T13:53:56.325Z,92600.00
2023-02-27T13:54:59.902Z,92598.00
2023-02-27T13:55:56.004Z,92602.00
2023-02-27T14:09:53.405Z,92612.00
2023-02-27T14:11:52.998Z,92616.00
2023-02-27T14:12:52.792Z,92616.00
2023-02-27T14:13:52.623Z,92608.00
2023-02-27T14:14:52.450Z,92614.00
2023-02-27T14:15:52.338Z,92612.00
2023-02-27T14:16:53.100Z,92610.00
2023-02-27T14:17:54.674Z,92608.00
2023-02-27T14:18:52.741Z,92612.00
2023-02-27T14:19:51.554Z,92610.00
2023-02-27T14:20:51.401Z,92612.00
2023-02-27T14:21:51.600Z,92612.00
2023-02-27T14:22:50.998Z,92610.00
2023-02-27T14:23:50.828Z,92612.00
2023-02-27T14:25:01.983Z,92612.00
2023-02-27T14:25:51.458Z,92614.00
2023-02-27T14:26:50.349Z,92612.00
2023-02-27T14:27:50.076Z,92608.00
2023-02-27T14:28:49.889Z,92608.00
2023-02-27T14:29:49.712Z,92610.00
2023-02-27T14:30:49.564Z,92614.00
2023-02-27T14:31:49.409Z,92612.00
2023-02-27T14:32:49.147Z,92612.00
2023-02-27T14:33:48.965Z,92608.00
2023-02-27T14:34:48.772Z,92610.00
2023-02-27T14:35:48.633Z,92614.00
2023-02-27T14:36:48.400Z,92614.00
2023-02-27T14:37:49.106Z,92612.00
2023-02-27T14:38:48.025Z,92618.00
2023-02-27T14:39:47.844Z,92614.00
2023-02-27T14:40:47.656Z,92614.00
2023-02-27T14:41:47.568Z,92612.00
2023-02-27T14:42:47.349Z,92614.00
2023-02-27T14:43:47.200Z,92614.00
2023-02-27T14:44:47.059Z,92612.00
2023-02-27T14:45:46.955Z,92612.00
2023-02-27T14:46:46.784Z,92612.00
2023-02-27T14:47:46.647Z,92612.00
2023-02-27T14:48:46.511Z,92610.00
2023-02-27T14:49:46.312Z,92608.00
2023-02-27T14:50:46.223Z,92610.00
2023-02-27T14:51:45.962Z,92612.00
2023-02-27T14:52:45.758Z,92606.00
2023-02-27T14:53:45.652Z,92608.00
2023-02-27T14:54:45.475Z,92610.00
2023-02-27T14:55:45.228Z,92610.00
2023-02-27T14:56:45.057Z,92606.00
2023-02-27T14:57:45.095Z,92606.00
2023-02-27T14:58:49.621Z,92610.00
2023-02-27T14:59:45.502Z,92610.00
2023-02-27T15:00:44.331Z,92608.00
2023-02-27T15:01:44.185Z,92608.00
2023-02-27T15:02:43.964Z,92608.00
2023-02-27T15:03:43.886Z,92612.00
2023-02-27T15:04:43.691Z,92610.00
2023-02-27T15:05:43.422Z,92610.00
2023-02-27T15:06:43.251Z,92616.00
2023-02-27T15:07:43.073Z,92612.00
2023-02-27T15:08:42.914Z,92608.00
2023-02-27T15:09:42.740Z,92606.00
2023-02-27T15:10:42.539Z,92606.00
2023-02-27T15:11:46.521Z,92610.00
2023-02-27T15:12:43.191Z,92608.00
2023-02-27T15:13:42.020Z,92604.00
2023-02-27T15:14:41.880Z,92606.00
2023-02-27T15:15:41.679Z,92606.00
2023-02-27T15:16:41.543Z,92608.00
2023-02-27T15:17:41.333Z,92604.00
2023-02-27T15:18:41.126Z,92604.00
2023-02-27T15:19:40.950Z,92604.00
2023-02-27T15:20:40.764Z,92606.00
2023-02-27T15:21:40.579Z,92606.00
2023-02-27T15:22:40.507Z,92604.00
2023-02-27T15:23:40.232Z,92606.00
2023-02-27T15:24:49.940Z,92606.00
2023-02-27T15:25:40.882Z,92604.00
2023-02-27T15:26:39.706Z,92602.00
2023-02-27T15:27:39.519Z,92606.00
2023-02-27T15:28:39.350Z,92602.00
2023-02-27T15:29:39.180Z,92602.00
2023-02-27T15:30:38.973Z,92606.00
2023-02-27T15:31:38.901Z,92606.00
2023-02-27T15:32:38.631Z,92604.00
2023-02-27T15:33:38.477Z,92604.00
2023-02-27T15:34:38.264Z,92602.00
2023-02-27T15:35:38.289Z,92604.00
2023-02-27T15:36:37.987Z,92608.00
2023-02-27T15:37:37.884Z,92606.00
2023-02-27T15:38:37.765Z,92608.00
2023-02-27T15:39:37.658Z,92606.00
2023-02-27T15:40:37.544Z,92604.00
2023-02-27T15:41:37.429Z,92608.00
2023-02-27T15:42:37.314Z,92610.00
2023-02-27T15:43:37.202Z,92610.00
2023-02-27T15:44:37.105Z,92612.00
2023-02-27T15:45:36.997Z,92616.00
2023-02-27T15:46:36.907Z,92612.00
2023-02-27T15:47:36.778Z,92624.00
2023-02-27T15:48:36.671Z,92616.00
2023-02-27T15:49:36.559Z,92616.00
2023-02-27T15:50:36.460Z,92618.00
2023-02-27T15:51:36.349Z,92616.00
2023-02-27T15:52:36.249Z,92616.00
2023-02-27T15:53:36.145Z,92616.00
2023-02-27T15:54:36.050Z,92620.00
2023-02-27T15:55:35.955Z,92622.00
2023-02-27T16:46:30.512Z,92687.00
2023-02-27T16:47:30.231Z,92689.00
2023-02-27T16:48:30.104Z,92696.00
2023-02-27T16:49:31.255Z,92689.00
2023-02-27T16:50:30.043Z,92689.00
2023-02-27T16:51:29.926Z,92693.00
2023-02-27T16:52:29.813Z,92691.00
2023-02-27T16:53:29.702Z,92694.00
2023-02-27T16:54:29.605Z,92694.00
2023-02-27T16:55:29.477Z,92696.00
2023-02-27T16:56:38.066Z,92700.00
2023-02-27T16:57:30.189Z,92704.00
2023-02-27T16:58:29.024Z,92704.00
2023-02-27T16:59:28.861Z,92706.00
2023-02-27T17:00:28.748Z,92706.00
2023-02-27T17:01:28.576Z,92710.00
2023-02-27T17:02:28.357Z,92712.00
2023-02-27T17:03:28.180Z,92708.00
2023-02-27T17:04:28.060Z,92708.00
2023-02-27T17:05:27.827Z,92710.00
2023-02-27T17:06:28.038Z,92708.00
2023-02-27T17:07:27.503Z,92712.00
2023-02-27T17:08:27.388Z,92710.00
2023-02-27T17:09:27.276Z,92714.00
2023-02-27T17:10:27.158Z,92714.00
2023-02-27T17:11:27.041Z,92724.00
2023-02-27T17:12:26.929Z,92720.00
2023-02-27T17:13:26.836Z,92718.00
2023-02-27T17:14:26.736Z,92724.00
2023-02-27T17:15:26.599Z,92724.00
2023-02-27T17:16:26.770Z,92724.00
2023-02-27T17:17:26.389Z,92726.00
2023-02-27T17:18:26.286Z,92724.00
2023-02-27T17:19:26.183Z,92728.00
2023-02-27T17:20:26.079Z,92730.00
2023-02-27T18:43:17.194Z,92814.00
2023-02-27T18:44:17.093Z,92810.00
2023-02-27T18:45:17.003Z,92810.00
2023-02-27T18:46:16.914Z,92818.00
2023-02-27T18:47:16.795Z,92816.00
2023-02-27T18:48:16.685Z,92812.00
2023-02-27T18:49:16.587Z,92812.00
2023-02-27T18:50:16.466Z,92820.00
2023-02-27T18:51:16.378Z,92816.00
2023-02-27T18:52:16.290Z,92810.00
2023-02-27T18:53:16.156Z,92814.00
2023-02-27T18:54:16.057Z,92816.00
2023-02-27T18:55:15.947Z,92816.00
2023-02-27T19:31:11.123Z,92833.00
2023-02-27T19:32:11.000Z,92835.00
2023-02-27T19:33:10.858Z,92833.00
2023-02-27T19:34:10.741Z,92841.00
2023-02-27T19:35:10.623Z,92835.00
2023-02-27T19:36:10.571Z,92835.00
2023-02-27T19:37:10.424Z,92835.00
2023-02-27T19:38:10.318Z,92835.00
2023-02-27T19:39:10.201Z,92837.00
2023-02-27T19:40:10.088Z,92833.00
2023-02-27T19:41:10.002Z,92833.00
2023-02-27T19:42:09.890Z,92837.00
2023-02-27T19:43:09.764Z,92835.00
2023-02-27T19:44:09.645Z,92835.00
2023-02-27T19:45:09.545Z,92835.00
2023-02-27T19:46:09.428Z,92839.00
2023-02-27T19:47:09.352Z,92833.00
2023-02-27T19:48:09.231Z,92835.00
2023-02-27T19:49:09.111Z,92837.00
2023-02-27T19:50:09.013Z,92833.00
2023-02-27T19:51:08.917Z,92833.00
2023-02-27T19:52:10.329Z,92835.00
2023-02-27T19:53:08.700Z,92835.00
2023-02-27T19:54:08.592Z,92837.00
2023-02-27T19:55:08.493Z,92837.00
2023-02-27T19:56:08.424Z,92835.00
2023-02-27T19:57:08.285Z,92835.00
2023-02-27T19:58:08.170Z,92835.00
2023-02-27T19:59:08.067Z,92835.00
2023-02-27T20:00:07.953Z,92837.00
2023-02-27T20:01:07.938Z,92837.00
2023-02-27T20:02:07.758Z,92843.00
2023-02-27T20:03:07.647Z,92839.00
2023-02-27T20:04:07.604Z,92841.00
2023-02-27T20:05:07.427Z,92841.00
2023-02-27T20:06:07.318Z,92843.00
2023-02-27T20:07:07.239Z,92847.00
2023-02-27T20:08:07.112Z,92845.00
2023-02-27T20:09:07.008Z,92847.00
2023-02-27T20:10:06.913Z,92845.00
2023-02-27T20:11:06.802Z,92845.00
2023-02-27T20:12:06.680Z,92847.00
2023-02-27T20:13:06.579Z,92843.00
2023-02-27T20:14:06.474Z,92849.00
2023-02-27T20:15:06.373Z,92845.00
2023-02-27T20:16:06.332Z,92849.00
2023-02-27T20:17:06.169Z,92845.00
2023-02-27T20:18:06.056Z,92845.00
2023-02-27T20:19:05.946Z,92847.00
2023-02-27T21:08:00.869Z,92871.00
2023-02-27T21:09:00.760Z,92871.00
2023-02-27T21:10:00.676Z,92867.00
2023-02-27T21:11:00.536Z,92873.00
2023-02-27T21:13:00.359Z,92871.00
2023-02-27T21:14:00.240Z,92869.00
2023-02-27T21:15:00.139Z,92869.00
2023-02-27T21:16:00.048Z,92871.00
2023-02-27T21:16:59.916Z,92873.00
2023-02-27T21:17:59.798Z,92869.00
2023-02-27T21:18:59.712Z,92869.00
2023-02-27T21:19:59.586Z,92867.00
2023-02-27T21:20:59.484Z,92871.00
2023-02-27T21:21:59.378Z,92875.00
2023-02-27T21:22:59.267Z,92873.00
2023-02-27T21:23:59.188Z,92869.00
2023-02-27T21:24:59.063Z,92869.00
2023-02-27T21:25:58.966Z,92869.00
2023-02-27T21:26:58.846Z,92869.00
2023-02-27T21:27:58.751Z,92869.00
2023-02-27T21:28:58.645Z,92871.00
2023-02-27T21:29:58.540Z,92871.00
2023-02-27T21:30:58.478Z,92871.00
2023-02-27T21:31:58.383Z,92869.00
2023-02-27T21:32:58.212Z,92869.00
2023-02-27T21:33:58.134Z,92871.00
2023-02-27T21:34:58.000Z,92871.00
2023-02-27T21:35:57.919Z,92871.00
2023-02-27T21:36:57.796Z,92875.00
2023-02-27T21:37:57.693Z,92869.00
2023-02-27T21:38:57.600Z,92869.00
2023-02-27T21:39:57.487Z,92867.00
2023-02-27T21:40:57.384Z,92867.00
2023-02-27T21:41:57.279Z,92867.00
2023-02-27T21:42:57.171Z,92865.00
2023-02-27T21:43:57.077Z,92863.00
2023-02-27T21:44:56.980Z,92865.00
2023-02-27T21:45:56.909Z,92867.00
2023-02-27T21:46:56.773Z,92863.00
2023-02-27T21:47:56.680Z,92865.00
2023-02-27T21:48:56.577Z,92865.00
2023-02-27T21:49:56.474Z,92861.00
2023-02-27T21:50:56.384Z,92861.00
2023-02-27T21:51:56.276Z,92861.00
2023-02-27T21:52:56.176Z,92859.00
2023-02-27T21:53:56.076Z,92863.00
2023-02-27T21:54:55.947Z,92861.00
2023-02-27T23:18:46.999Z,92873.00
2023-02-27T23:21:46.695Z,92871.00
2023-02-27T23:22:46.606Z,92877.00
2023-02-27T23:23:46.495Z,92877.00
2023-02-27T23:24:46.407Z,92877.00
2023-02-27T23:25:46.288Z,92879.00
2023-02-27T23:26:46.190Z,92880.00
2023-02-27T23:27:46.088Z,92877.00
2023-02-27T23:28:45.978Z,92875.00
